sensor_id;sensor_type;location;lat;lon;timestamp;pressure;altitude;pressure_sealevel;temperature;humidity
5812;BME280;2932;52.400;9.558;2022-09-06T00:00:12;101227.84;;;25.72;55.66
5812;BME280;2932;52.400;9.558;2022-09-06T00:02:38;101235.25;;;25.66;56.22
5812;BME280;2932;52.400;9.558;2022-09-06T00:05:04;101228.25;;;25.50;56.08
5812;BME280;2932;52.400;9.558;2022-09-06T00:07:30;101224.91;;;25.55;56.06
5812;BME280;2932;52.400;9.558;2022-09-06T00:09:55;101230.50;;;25.59;55.91
5812;BME280;2932;52.400;9.558;2022-09-06T00:12:22;101233.41;;;25.55;56.24
5812;BME280;2932;52.400;9.558;2022-09-06T00:14:47;101233.53;;;25.48;56.28
5812;BME280;2932;52.400;9.558;2022-09-06T00:17:12;101235.94;;;25.50;56.10
5812;BME280;2932;52.400;9.558;2022-09-06T00:19:38;101234.34;;;25.49;56.25
5812;BME280;2932;52.400;9.558;2022-09-06T00:22:03;101228.00;;;25.41;56.35
5812;BME280;2932;52.400;9.558;2022-09-06T00:24:28;101229.25;;;25.40;56.23
5812;BME280;2932;52.400;9.558;2022-09-06T00:26:54;101234.53;;;25.38;56.43
5812;BME280;2932;52.400;9.558;2022-09-06T00:29:19;101235.66;;;25.21;56.86
5812;BME280;2932;52.400;9.558;2022-09-06T00:31:44;101234.78;;;25.24;56.60
5812;BME280;2932;52.400;9.558;2022-09-06T00:34:10;101235.97;;;25.26;56.48
5812;BME280;2932;52.400;9.558;2022-09-06T00:36:35;101222.72;;;25.20;56.62
5812;BME280;2932;52.400;9.558;2022-09-06T00:39:01;101229.13;;;25.24;56.49
5812;BME280;2932;52.400;9.558;2022-09-06T00:41:26;101223.56;;;25.40;56.32
5812;BME280;2932;52.400;9.558;2022-09-06T00:43:51;101216.66;;;25.41;56.43
5812;BME280;2932;52.400;9.558;2022-09-06T00:46:22;101225.16;;;25.41;56.28
5812;BME280;2932;52.400;9.558;2022-09-06T00:48:52;101220.63;;;25.24;56.36
5812;BME280;2932;52.400;9.558;2022-09-06T00:51:21;101236.66;;;25.11;56.73
5812;BME280;2932;52.400;9.558;2022-09-06T00:53:49;101228.78;;;24.99;57.18
5812;BME280;2932;52.400;9.558;2022-09-06T00:56:14;101226.81;;;25.19;56.62
5812;BME280;2932;52.400;9.558;2022-09-06T00:58:40;101218.88;;;24.83;57.58
5812;BME280;2932;52.400;9.558;2022-09-06T01:01:06;101226.69;;;25.03;56.79
5812;BME280;2932;52.400;9.558;2022-09-06T01:03:32;101223.06;;;25.02;56.88
5812;BME280;2932;52.400;9.558;2022-09-06T01:06:13;101220.38;;;24.91;57.07
5812;BME280;2932;52.400;9.558;2022-09-06T01:14:49;101229.84;;;24.81;57.44
5812;BME280;2932;52.400;9.558;2022-09-06T01:28:50;101200.25;;;24.36;60.32
5812;BME280;2932;52.400;9.558;2022-09-06T01:31:03;101189.41;;;24.57;60.51
5812;BME280;2932;52.400;9.558;2022-09-06T01:36:43;101179.53;;;24.42;60.81
5812;BME280;2932;52.400;9.558;2022-09-06T01:39:19;101179.88;;;24.17;61.50
5812;BME280;2932;52.400;9.558;2022-09-06T01:41:46;101178.63;;;23.91;61.61
5812;BME280;2932;52.400;9.558;2022-09-06T01:44:12;101180.66;;;23.91;62.27
5812;BME280;2932;52.400;9.558;2022-09-06T01:47:13;101180.06;;;24.03;61.57
5812;BME280;2932;52.400;9.558;2022-09-06T01:52:33;101184.28;;;23.91;61.48
5812;BME280;2932;52.400;9.558;2022-09-06T02:00:22;101164.03;;;23.97;60.77
5812;BME280;2932;52.400;9.558;2022-09-06T02:04:06;101160.72;;;24.02;60.65
5812;BME280;2932;52.400;9.558;2022-09-06T02:06:21;101162.63;;;24.08;59.79
5812;BME280;2932;52.400;9.558;2022-09-06T02:09:00;101169.25;;;23.98;59.97
5812;BME280;2932;52.400;9.558;2022-09-06T02:11:32;101164.56;;;23.88;59.90
5812;BME280;2932;52.400;9.558;2022-09-06T02:14:08;101172.09;;;23.98;60.04
5812;BME280;2932;52.400;9.558;2022-09-06T02:16:38;101179.34;;;23.99;59.60
5812;BME280;2932;52.400;9.558;2022-09-06T02:19:12;101176.44;;;24.03;59.38
5812;BME280;2932;52.400;9.558;2022-09-06T02:21:42;101185.00;;;23.99;59.47
5812;BME280;2932;52.400;9.558;2022-09-06T02:24:14;101174.47;;;24.00;59.41
5812;BME280;2932;52.400;9.558;2022-09-06T02:26:43;101167.66;;;23.97;59.38
5812;BME280;2932;52.400;9.558;2022-09-06T02:29:10;101162.38;;;23.99;59.44
5812;BME280;2932;52.400;9.558;2022-09-06T02:31:42;101163.47;;;23.78;59.52
5812;BME280;2932;52.400;9.558;2022-09-06T02:34:12;101163.78;;;23.84;59.47
5812;BME280;2932;52.400;9.558;2022-09-06T02:36:39;101167.66;;;23.97;59.11
5812;BME280;2932;52.400;9.558;2022-09-06T02:39:05;101181.28;;;24.02;58.87
5812;BME280;2932;52.400;9.558;2022-09-06T02:41:31;101181.88;;;23.90;58.73
5812;BME280;2932;52.400;9.558;2022-09-06T02:43:57;101176.22;;;23.90;58.67
5812;BME280;2932;52.400;9.558;2022-09-06T02:46:22;101164.63;;;23.81;59.07
5812;BME280;2932;52.400;9.558;2022-09-06T02:48:48;101165.25;;;23.65;58.71
5812;BME280;2932;52.400;9.558;2022-09-06T02:51:14;101162.44;;;23.61;58.81
5812;BME280;2932;52.400;9.558;2022-09-06T02:53:39;101152.38;;;23.60;58.92
5812;BME280;2932;52.400;9.558;2022-09-06T02:56:04;101156.34;;;23.67;58.86
5812;BME280;2932;52.400;9.558;2022-09-06T02:58:30;101161.84;;;23.77;58.81
5812;BME280;2932;52.400;9.558;2022-09-06T03:00:55;101151.91;;;23.66;59.07
5812;BME280;2932;52.400;9.558;2022-09-06T03:03:22;101158.47;;;23.59;59.01
5812;BME280;2932;52.400;9.558;2022-09-06T03:05:51;101147.47;;;23.65;59.22
5812;BME280;2932;52.400;9.558;2022-09-06T03:08:17;101155.56;;;23.63;59.67
5812;BME280;2932;52.400;9.558;2022-09-06T03:10:50;101142.53;;;23.72;59.40
5812;BME280;2932;52.400;9.558;2022-09-06T03:13:16;101161.72;;;23.57;59.56
5812;BME280;2932;52.400;9.558;2022-09-06T03:15:42;101159.31;;;23.56;59.51
5812;BME280;2932;52.400;9.558;2022-09-06T03:18:07;101164.81;;;23.67;59.38
5812;BME280;2932;52.400;9.558;2022-09-06T03:20:32;101169.50;;;23.46;59.75
5812;BME280;2932;52.400;9.558;2022-09-06T03:22:58;101162.53;;;23.58;59.23
5812;BME280;2932;52.400;9.558;2022-09-06T03:25:23;101154.97;;;23.44;59.39
5812;BME280;2932;52.400;9.558;2022-09-06T03:27:49;101161.44;;;23.45;59.56
5812;BME280;2932;52.400;9.558;2022-09-06T03:30:15;101167.53;;;23.40;59.50
5812;BME280;2932;52.400;9.558;2022-09-06T03:32:40;101168.25;;;23.13;59.90
5812;BME280;2932;52.400;9.558;2022-09-06T03:35:06;101166.50;;;23.23;59.73
5812;BME280;2932;52.400;9.558;2022-09-06T03:37:32;101163.41;;;23.14;59.80
5812;BME280;2932;52.400;9.558;2022-09-06T03:39:57;101165.00;;;23.15;59.56
5812;BME280;2932;52.400;9.558;2022-09-06T03:42:23;101157.66;;;23.21;59.29
5812;BME280;2932;52.400;9.558;2022-09-06T03:44:51;101165.47;;;23.10;59.38
5812;BME280;2932;52.400;9.558;2022-09-06T03:47:16;101152.50;;;23.16;59.20
5812;BME280;2932;52.400;9.558;2022-09-06T03:49:41;101157.38;;;23.12;59.41
5812;BME280;2932;52.400;9.558;2022-09-06T03:52:06;101156.84;;;23.20;59.10
5812;BME280;2932;52.400;9.558;2022-09-06T03:54:32;101159.31;;;23.18;58.85
5812;BME280;2932;52.400;9.558;2022-09-06T03:56:57;101155.22;;;23.23;58.91
5812;BME280;2932;52.400;9.558;2022-09-06T03:59:22;101158.97;;;23.13;59.27
5812;BME280;2932;52.400;9.558;2022-09-06T04:01:48;101153.31;;;23.13;59.07
5812;BME280;2932;52.400;9.558;2022-09-06T04:04:13;101152.34;;;23.26;58.74
5812;BME280;2932;52.400;9.558;2022-09-06T04:06:39;101162.56;;;23.17;58.84
5812;BME280;2932;52.400;9.558;2022-09-06T04:09:04;101167.16;;;23.00;59.04
5812;BME280;2932;52.400;9.558;2022-09-06T04:11:29;101164.69;;;23.06;59.19
5812;BME280;2932;52.400;9.558;2022-09-06T04:13:55;101156.22;;;23.06;58.66
5812;BME280;2932;52.400;9.558;2022-09-06T04:16:20;101147.47;;;22.93;58.78
5812;BME280;2932;52.400;9.558;2022-09-06T04:18:45;101145.84;;;22.95;58.68
5812;BME280;2932;52.400;9.558;2022-09-06T04:21:11;101147.44;;;22.97;58.80
5812;BME280;2932;52.400;9.558;2022-09-06T04:23:36;101140.91;;;23.03;58.68
5812;BME280;2932;52.400;9.558;2022-09-06T04:26:02;101140.00;;;23.13;58.51
5812;BME280;2932;52.400;9.558;2022-09-06T04:28:28;101143.53;;;22.83;58.92
5812;BME280;2932;52.400;9.558;2022-09-06T04:30:56;101140.38;;;22.74;59.00
5812;BME280;2932;52.400;9.558;2022-09-06T04:33:23;101134.28;;;22.79;58.90
5812;BME280;2932;52.400;9.558;2022-09-06T04:35:58;101138.19;;;22.92;58.98
5812;BME280;2932;52.400;9.558;2022-09-06T04:38:26;101139.38;;;22.95;58.62
5812;BME280;2932;52.400;9.558;2022-09-06T04:40:53;101145.53;;;22.83;58.96
5812;BME280;2932;52.400;9.558;2022-09-06T04:43:20;101146.59;;;22.51;59.62
5812;BME280;2932;52.400;9.558;2022-09-06T04:45:45;101147.00;;;22.50;59.70
5812;BME280;2932;52.400;9.558;2022-09-06T04:48:10;101149.38;;;22.58;59.71
5812;BME280;2932;52.400;9.558;2022-09-06T04:50:36;101149.38;;;22.58;59.47
5812;BME280;2932;52.400;9.558;2022-09-06T04:53:03;101137.38;;;22.47;59.71
5812;BME280;2932;52.400;9.558;2022-09-06T04:55:28;101134.91;;;22.53;59.51
5812;BME280;2932;52.400;9.558;2022-09-06T04:57:56;101128.03;;;22.57;59.31
5812;BME280;2932;52.400;9.558;2022-09-06T05:00:24;101130.03;;;22.57;59.29
5812;BME280;2932;52.400;9.558;2022-09-06T05:02:49;101137.72;;;22.53;59.27
5812;BME280;2932;52.400;9.558;2022-09-06T05:05:14;101143.38;;;22.53;59.20
5812;BME280;2932;52.400;9.558;2022-09-06T05:07:40;101140.50;;;22.60;59.04
5812;BME280;2932;52.400;9.558;2022-09-06T05:10:05;101144.09;;;22.64;58.83
5812;BME280;2932;52.400;9.558;2022-09-06T05:12:31;101151.28;;;22.72;58.57
5812;BME280;2932;52.400;9.558;2022-09-06T05:14:56;101142.72;;;22.83;58.50
5812;BME280;2932;52.400;9.558;2022-09-06T05:17:21;101146.47;;;22.69;58.31
5812;BME280;2932;52.400;9.558;2022-09-06T05:19:47;101158.66;;;22.55;58.67
5812;BME280;2932;52.400;9.558;2022-09-06T05:22:12;101150.47;;;22.72;58.22
5812;BME280;2932;52.400;9.558;2022-09-06T05:24:37;101146.47;;;22.69;58.27
5812;BME280;2932;52.400;9.558;2022-09-06T05:27:03;101146.50;;;22.66;58.01
5812;BME280;2932;52.400;9.558;2022-09-06T05:29:29;101142.66;;;22.90;57.90
5812;BME280;2932;52.400;9.558;2022-09-06T05:31:55;101143.59;;;22.76;58.22
5812;BME280;2932;52.400;9.558;2022-09-06T05:34:21;101139.66;;;22.63;58.10
5812;BME280;2932;52.400;9.558;2022-09-06T05:36:46;101160.03;;;22.37;58.69
5812;BME280;2932;52.400;9.558;2022-09-06T05:39:11;101160.50;;;22.24;58.97
5812;BME280;2932;52.400;9.558;2022-09-06T05:41:37;101170.59;;;22.22;58.82
5812;BME280;2932;52.400;9.558;2022-09-06T05:44:02;101193.81;;;22.40;58.38
5812;BME280;2932;52.400;9.558;2022-09-06T05:46:28;101216.69;;;22.53;58.33
5812;BME280;2932;52.400;9.558;2022-09-06T05:48:55;101221.56;;;22.49;58.50
5812;BME280;2932;52.400;9.558;2022-09-06T05:51:22;101228.63;;;22.75;58.12
5812;BME280;2932;52.400;9.558;2022-09-06T05:53:48;101224.09;;;22.88;57.58
5812;BME280;2932;52.400;9.558;2022-09-06T05:56:14;101217.22;;;22.92;57.38
5812;BME280;2932;52.400;9.558;2022-09-06T05:58:40;101224.47;;;22.93;57.51
5812;BME280;2932;52.400;9.558;2022-09-06T06:01:21;101212.72;;;22.99;57.50
5812;BME280;2932;52.400;9.558;2022-09-06T06:03:52;101210.06;;;22.81;58.14
5812;BME280;2932;52.400;9.558;2022-09-06T06:06:19;101190.06;;;22.57;59.77
5812;BME280;2932;52.400;9.558;2022-09-06T06:08:45;101182.38;;;22.61;61.02
5812;BME280;2932;52.400;9.558;2022-09-06T06:11:10;101194.63;;;22.41;61.62
5812;BME280;2932;52.400;9.558;2022-09-06T06:13:36;101188.38;;;22.08;63.19
5812;BME280;2932;52.400;9.558;2022-09-06T06:16:08;101178.88;;;21.74;63.35
5812;BME280;2932;52.400;9.558;2022-09-06T06:18:34;101152.81;;;21.52;65.71
5812;BME280;2932;52.400;9.558;2022-09-06T06:21:27;101131.56;;;21.33;67.24
5812;BME280;2932;52.400;9.558;2022-09-06T06:23:55;101124.84;;;20.77;69.40
5812;BME280;2932;52.400;9.558;2022-09-06T06:26:21;101152.53;;;20.47;70.84
5812;BME280;2932;52.400;9.558;2022-09-06T06:28:47;101141.72;;;20.59;71.58
5812;BME280;2932;52.400;9.558;2022-09-06T06:31:13;101142.13;;;20.54;71.78
5812;BME280;2932;52.400;9.558;2022-09-06T06:33:39;101150.97;;;20.39;71.39
5812;BME280;2932;52.400;9.558;2022-09-06T06:36:17;101148.94;;;20.39;71.69
5812;BME280;2932;52.400;9.558;2022-09-06T06:38:44;101156.56;;;20.46;71.00
5812;BME280;2932;52.400;9.558;2022-09-06T06:41:14;101179.47;;;20.48;71.05
5812;BME280;2932;52.400;9.558;2022-09-06T06:43:40;101189.91;;;20.90;70.22
5812;BME280;2932;52.400;9.558;2022-09-06T06:46:15;101203.16;;;21.04;68.99
5812;BME280;2932;52.400;9.558;2022-09-06T06:48:42;101213.22;;;21.15;68.56
5812;BME280;2932;52.400;9.558;2022-09-06T06:51:12;101228.06;;;21.34;67.98
5812;BME280;2932;52.400;9.558;2022-09-06T06:53:38;101233.69;;;21.34;67.83
5812;BME280;2932;52.400;9.558;2022-09-06T06:58:39;101212.72;;;21.59;67.47
5812;BME280;2932;52.400;9.558;2022-09-06T07:01:04;101213.09;;;21.65;67.72
5812;BME280;2932;52.400;9.558;2022-09-06T07:03:29;101222.75;;;21.64;67.98
5812;BME280;2932;52.400;9.558;2022-09-06T07:05:55;101223.09;;;21.80;68.12
5812;BME280;2932;52.400;9.558;2022-09-06T07:08:20;101240.38;;;21.93;67.53
5812;BME280;2932;52.400;9.558;2022-09-06T07:10:45;101246.38;;;22.02;67.26
5812;BME280;2932;52.400;9.558;2022-09-06T07:13:11;101241.47;;;22.20;67.87
5812;BME280;2932;52.400;9.558;2022-09-06T07:15:36;101242.63;;;22.30;67.75
5812;BME280;2932;52.400;9.558;2022-09-06T07:18:02;101246.69;;;22.22;67.73
5812;BME280;2932;52.400;9.558;2022-09-06T07:20:27;101233.75;;;22.32;67.85
5812;BME280;2932;52.400;9.558;2022-09-06T07:23:01;101223.75;;;22.23;67.28
5812;BME280;2932;52.400;9.558;2022-09-06T07:25:27;101215.34;;;22.09;67.66
5812;BME280;2932;52.400;9.558;2022-09-06T07:28:01;101204.91;;;22.03;67.66
5812;BME280;2932;52.400;9.558;2022-09-06T07:30:29;101211.34;;;22.00;68.09
5812;BME280;2932;52.400;9.558;2022-09-06T07:32:55;101204.91;;;22.06;67.96
5812;BME280;2932;52.400;9.558;2022-09-06T07:35:20;101198.94;;;21.90;68.20
5812;BME280;2932;52.400;9.558;2022-09-06T07:37:53;101190.91;;;21.81;68.37
5812;BME280;2932;52.400;9.558;2022-09-06T07:40:19;101191.72;;;21.78;67.97
5812;BME280;2932;52.400;9.558;2022-09-06T07:42:44;101201.78;;;21.76;68.50
5812;BME280;2932;52.400;9.558;2022-09-06T07:45:09;101199.78;;;21.73;68.40
5812;BME280;2932;52.400;9.558;2022-09-06T07:47:35;101198.53;;;21.84;68.40
5812;BME280;2932;52.400;9.558;2022-09-06T07:50:00;101187.34;;;21.63;68.49
5812;BME280;2932;52.400;9.558;2022-09-06T07:52:26;101193.38;;;21.69;68.14
5812;BME280;2932;52.400;9.558;2022-09-06T07:54:51;101194.56;;;21.71;68.21
5812;BME280;2932;52.400;9.558;2022-09-06T07:57:17;101199.00;;;21.72;68.22
5812;BME280;2932;52.400;9.558;2022-09-06T07:59:43;101224.34;;;21.72;68.09
5812;BME280;2932;52.400;9.558;2022-09-06T08:02:08;101221.94;;;21.71;67.87
5812;BME280;2932;52.400;9.558;2022-09-06T08:04:33;101223.16;;;21.62;67.72
5812;BME280;2932;52.400;9.558;2022-09-06T08:06:59;101209.84;;;21.77;67.80
5812;BME280;2932;52.400;9.558;2022-09-06T08:09:26;101215.91;;;21.69;67.15
5812;BME280;2932;52.400;9.558;2022-09-06T08:11:51;101223.50;;;21.86;66.36
5812;BME280;2932;52.400;9.558;2022-09-06T08:14:17;101238.72;;;22.03;66.35
5812;BME280;2932;52.400;9.558;2022-09-06T08:16:42;101244.75;;;22.05;66.61
5812;BME280;2932;52.400;9.558;2022-09-06T08:19:07;101249.63;;;21.90;65.31
5812;BME280;2932;52.400;9.558;2022-09-06T08:21:34;101259.19;;;22.17;65.65
5812;BME280;2932;52.400;9.558;2022-09-06T08:24:02;101251.94;;;22.23;64.90
5812;BME280;2932;52.400;9.558;2022-09-06T08:26:29;101250.16;;;22.51;64.25
5812;BME280;2932;52.400;9.558;2022-09-06T08:29:02;101232.69;;;22.70;64.52
5812;BME280;2932;52.400;9.558;2022-09-06T08:31:30;101223.97;;;22.50;64.08
5812;BME280;2932;52.400;9.558;2022-09-06T08:33:57;101223.53;;;22.55;64.55
5812;BME280;2932;52.400;9.558;2022-09-06T08:36:23;101220.84;;;22.38;64.44
5812;BME280;2932;52.400;9.558;2022-09-06T08:38:51;101222.56;;;22.14;65.14
5812;BME280;2932;52.400;9.558;2022-09-06T08:41:26;101216.59;;;21.98;64.72
5812;BME280;2932;52.400;9.558;2022-09-06T08:43:57;101210.53;;;22.03;65.28
5812;BME280;2932;52.400;9.558;2022-09-06T08:46:31;101200.91;;;21.96;65.45
5812;BME280;2932;52.400;9.558;2022-09-06T08:48:58;101196.47;;;21.99;65.05
5812;BME280;2932;52.400;9.558;2022-09-06T08:53:59;101189.41;;;21.55;66.38
5812;BME280;2932;52.400;9.558;2022-09-06T08:57:08;101194.59;;;21.64;65.49
5812;BME280;2932;52.400;9.558;2022-09-06T08:59:36;101196.13;;;21.83;65.32
5812;BME280;2932;52.400;9.558;2022-09-06T09:02:11;101188.88;;;21.89;65.08
5812;BME280;2932;52.400;9.558;2022-09-06T09:04:46;101200.53;;;21.87;64.95
5812;BME280;2932;52.400;9.558;2022-09-06T09:07:38;101199.28;;;21.99;64.64
5812;BME280;2932;52.400;9.558;2022-09-06T09:10:22;101205.38;;;21.90;64.75
5812;BME280;2932;52.400;9.558;2022-09-06T09:12:51;101192.47;;;21.96;64.51
5812;BME280;2932;52.400;9.558;2022-09-06T09:15:19;101198.81;;;22.15;64.16
5812;BME280;2932;52.400;9.558;2022-09-06T09:17:46;101184.31;;;22.16;63.91
5812;BME280;2932;52.400;9.558;2022-09-06T09:20:13;101181.09;;;22.18;63.49
5812;BME280;2932;52.400;9.558;2022-09-06T09:22:40;101181.06;;;22.21;63.55
5812;BME280;2932;52.400;9.558;2022-09-06T09:25:07;101174.38;;;21.90;63.56
5812;BME280;2932;52.400;9.558;2022-09-06T09:27:35;101175.13;;;22.02;63.89
5812;BME280;2932;52.400;9.558;2022-09-06T09:30:05;101173.75;;;22.31;63.08
5812;BME280;2932;52.400;9.558;2022-09-06T09:32:32;101168.47;;;22.37;62.98
5812;BME280;2932;52.400;9.558;2022-09-06T09:37:41;101173.13;;;22.02;63.27
5812;BME280;2932;52.400;9.558;2022-09-06T09:40:28;101163.44;;;22.03;63.28
5812;BME280;2932;52.400;9.558;2022-09-06T09:42:56;101156.59;;;22.04;62.79
5812;BME280;2932;52.400;9.558;2022-09-06T09:45:32;101162.59;;;22.13;62.63
5812;BME280;2932;52.400;9.558;2022-09-06T09:48:15;101159.06;;;21.95;62.56
5812;BME280;2932;52.400;9.558;2022-09-06T09:50:41;101154.16;;;22.10;62.61
5812;BME280;2932;52.400;9.558;2022-09-06T09:53:09;101154.91;;;22.17;62.27
5812;BME280;2932;52.400;9.558;2022-09-06T09:55:35;101141.59;;;22.21;62.51
5812;BME280;2932;52.400;9.558;2022-09-06T09:58:01;101154.34;;;22.40;62.30
5812;BME280;2932;52.400;9.558;2022-09-06T10:00:36;101153.91;;;22.42;62.58
5812;BME280;2932;52.400;9.558;2022-09-06T10:05:38;101157.84;;;22.55;62.53
5812;BME280;2932;52.400;9.558;2022-09-06T10:08:09;101147.72;;;22.61;62.54
5812;BME280;2932;52.400;9.558;2022-09-06T10:10:40;101144.91;;;22.61;62.72
5812;BME280;2932;52.400;9.558;2022-09-06T10:15:41;101131.97;;;22.67;62.24
5812;BME280;2932;52.400;9.558;2022-09-06T10:20:54;101125.81;;;22.79;62.00
5812;BME280;2932;52.400;9.558;2022-09-06T10:29:02;101129.31;;;22.94;61.95
5812;BME280;2932;52.400;9.558;2022-09-06T10:39:55;101107.25;;;23.57;60.55
5812;BME280;2932;52.400;9.558;2022-09-06T10:42:38;101108.91;;;23.81;60.21
5812;BME280;2932;52.400;9.558;2022-09-06T10:48:20;101099.44;;;24.92;56.70
5812;BME280;2932;52.400;9.558;2022-09-06T10:51:03;101104.28;;;24.91;55.50
5812;BME280;2932;52.400;9.558;2022-09-06T10:53:38;101107.69;;;25.26;54.34
5812;BME280;2932;52.400;9.558;2022-09-06T10:59:00;101110.28;;;25.96;52.44
5812;BME280;2932;52.400;9.558;2022-09-06T11:01:33;101108.13;;;26.00;52.70
5812;BME280;2932;52.400;9.558;2022-09-06T11:04:04;101094.41;;;25.99;52.86
5812;BME280;2932;52.400;9.558;2022-09-06T11:06:35;101103.28;;;26.17;52.30
5812;BME280;2932;52.400;9.558;2022-09-06T11:09:24;101108.91;;;26.53;51.56
5812;BME280;2932;52.400;9.558;2022-09-06T11:12:07;101105.47;;;26.90;50.73
5812;BME280;2932;52.400;9.558;2022-09-06T11:14:35;101105.50;;;27.48;49.68
5812;BME280;2932;52.400;9.558;2022-09-06T11:20:17;101110.63;;;26.96;49.50
5812;BME280;2932;52.400;9.558;2022-09-06T11:22:46;101116.81;;;26.90;50.23
5812;BME280;2932;52.400;9.558;2022-09-06T11:25:29;101106.59;;;26.48;50.51
5812;BME280;2932;52.400;9.558;2022-09-06T11:27:59;101108.31;;;26.09;51.25
5812;BME280;2932;52.400;9.558;2022-09-06T11:30:28;101101.72;;;26.32;51.45
5812;BME280;2932;52.400;9.558;2022-09-06T11:33:10;101098.38;;;26.82;50.28
5812;BME280;2932;52.400;9.558;2022-09-06T11:35:41;101092.88;;;27.08;49.17
5812;BME280;2932;52.400;9.558;2022-09-06T11:38:16;101102.84;;;27.41;49.58
5812;BME280;2932;52.400;9.558;2022-09-06T11:40:46;101100.00;;;27.83;48.30
5812;BME280;2932;52.400;9.558;2022-09-06T11:43:20;101094.53;;;28.14;47.98
5812;BME280;2932;52.400;9.558;2022-09-06T11:46:02;101091.22;;;28.41;47.17
5812;BME280;2932;52.400;9.558;2022-09-06T11:51:06;101088.59;;;29.37;45.95
5812;BME280;2932;52.400;9.558;2022-09-06T11:53:34;101085.53;;;29.44;45.52
5812;BME280;2932;52.400;9.558;2022-09-06T11:56:28;101082.81;;;29.41;45.56
5812;BME280;2932;52.400;9.558;2022-09-06T11:59:00;101091.09;;;29.48;45.58
5812;BME280;2932;52.400;9.558;2022-09-06T12:08:54;101073.88;;;30.32;43.55
5812;BME280;2932;52.400;9.558;2022-09-06T12:11:44;101080.34;;;30.23;44.13
5812;BME280;2932;52.400;9.558;2022-09-06T12:14:30;101083.75;;;29.69;44.29
5812;BME280;2932;52.400;9.558;2022-09-06T12:27:38;101077.31;;;30.94;43.30
5812;BME280;2932;52.400;9.558;2022-09-06T12:30:30;101071.56;;;31.49;42.82
5812;BME280;2932;52.400;9.558;2022-09-06T12:32:56;101064.44;;;31.87;41.98
5812;BME280;2932;52.400;9.558;2022-09-06T12:35:25;101063.44;;;31.99;42.07
5812;BME280;2932;52.400;9.558;2022-09-06T12:37:59;101055.94;;;32.01;41.60
5812;BME280;2932;52.400;9.558;2022-09-06T12:40:28;101054.28;;;31.86;41.43
5812;BME280;2932;52.400;9.558;2022-09-06T12:42:54;101051.22;;;31.98;41.64
5812;BME280;2932;52.400;9.558;2022-09-06T12:45:21;101047.84;;;32.00;41.45
5812;BME280;2932;52.400;9.558;2022-09-06T12:47:48;101050.03;;;31.72;41.86
5812;BME280;2932;52.400;9.558;2022-09-06T12:50:15;101051.88;;;31.24;42.02
5812;BME280;2932;52.400;9.558;2022-09-06T12:52:44;101044.63;;;31.65;42.36
5812;BME280;2932;52.400;9.558;2022-09-06T12:57:50;101032.81;;;32.14;41.68
5812;BME280;2932;52.400;9.558;2022-09-06T13:00:16;101035.78;;;32.29;41.38
5812;BME280;2932;52.400;9.558;2022-09-06T13:05:30;101033.81;;;32.02;41.70
5812;BME280;2932;52.400;9.558;2022-09-06T13:07:58;101035.16;;;32.25;41.46
5812;BME280;2932;52.400;9.558;2022-09-06T13:10:26;101037.34;;;32.54;41.19
5812;BME280;2932;52.400;9.558;2022-09-06T13:12:54;101023.06;;;32.68;40.59
5812;BME280;2932;52.400;9.558;2022-09-06T13:15:28;101012.72;;;32.71;40.81
5812;BME280;2932;52.400;9.558;2022-09-06T13:21:04;101010.78;;;32.53;40.79
5812;BME280;2932;52.400;9.558;2022-09-06T13:23:39;101008.88;;;32.50;40.64
5812;BME280;2932;52.400;9.558;2022-09-06T13:26:06;100997.41;;;32.74;40.73
5812;BME280;2932;52.400;9.558;2022-09-06T13:28:32;100989.91;;;32.76;40.41
5812;BME280;2932;52.400;9.558;2022-09-06T13:31:02;100995.84;;;32.88;40.80
5812;BME280;2932;52.400;9.558;2022-09-06T13:33:28;100992.09;;;32.96;40.38
5812;BME280;2932;52.400;9.558;2022-09-06T13:36:23;100987.66;;;32.95;40.19
5812;BME280;2932;52.400;9.558;2022-09-06T13:38:50;100979.44;;;32.88;40.65
5812;BME280;2932;52.400;9.558;2022-09-06T13:44:05;100968.00;;;33.03;40.32
5812;BME280;2932;52.400;9.558;2022-09-06T13:46:32;100974.63;;;33.09;40.51
5812;BME280;2932;52.400;9.558;2022-09-06T13:48:58;100965.41;;;33.20;40.69
5812;BME280;2932;52.400;9.558;2022-09-06T13:51:24;100970.56;;;33.16;40.50
5812;BME280;2932;52.400;9.558;2022-09-06T13:53:51;100970.88;;;33.18;40.87
5812;BME280;2932;52.400;9.558;2022-09-06T13:56:27;100967.78;;;33.21;40.46
5812;BME280;2932;52.400;9.558;2022-09-06T13:58:53;100966.66;;;33.63;39.81
5812;BME280;2932;52.400;9.558;2022-09-06T14:01:18;100962.28;;;33.67;39.87
5812;BME280;2932;52.400;9.558;2022-09-06T14:03:43;100965.09;;;33.97;39.66
5812;BME280;2932;52.400;9.558;2022-09-06T14:06:09;100960.66;;;34.16;39.38
5812;BME280;2932;52.400;9.558;2022-09-06T14:08:34;100963.16;;;34.08;39.17
5812;BME280;2932;52.400;9.558;2022-09-06T14:11:01;100966.09;;;33.94;39.44
5812;BME280;2932;52.400;9.558;2022-09-06T14:13:27;100960.38;;;34.14;38.77
5812;BME280;2932;52.400;9.558;2022-09-06T14:15:52;100962.72;;;34.16;39.14
5812;BME280;2932;52.400;9.558;2022-09-06T14:18:18;100964.38;;;34.22;39.23
5812;BME280;2932;52.400;9.558;2022-09-06T14:20:51;100966.03;;;34.29;38.86
5812;BME280;2932;52.400;9.558;2022-09-06T14:23:16;100958.34;;;34.40;38.61
5812;BME280;2932;52.400;9.558;2022-09-06T14:25:42;100955.91;;;33.93;39.35
5812;BME280;2932;52.400;9.558;2022-09-06T14:28:07;100953.91;;;34.19;38.97
5812;BME280;2932;52.400;9.558;2022-09-06T14:30:32;100951.00;;;34.34;38.95
5812;BME280;2932;52.400;9.558;2022-09-06T14:32:58;100947.84;;;34.58;38.86
5812;BME280;2932;52.400;9.558;2022-09-06T14:35:23;100954.94;;;34.83;38.62
5812;BME280;2932;52.400;9.558;2022-09-06T14:37:49;100948.22;;;34.65;38.56
5812;BME280;2932;52.400;9.558;2022-09-06T14:40:15;100943.56;;;34.48;38.82
5812;BME280;2932;52.400;9.558;2022-09-06T14:42:41;100940.66;;;34.68;38.95
5812;BME280;2932;52.400;9.558;2022-09-06T14:45:06;100945.19;;;34.54;38.82
5812;BME280;2932;52.400;9.558;2022-09-06T14:47:32;100947.00;;;34.52;38.88
5812;BME280;2932;52.400;9.558;2022-09-06T14:49:58;100943.19;;;34.40;38.88
5812;BME280;2932;52.400;9.558;2022-09-06T14:52:24;100938.03;;;34.24;38.77
5812;BME280;2932;52.400;9.558;2022-09-06T14:54:49;100942.31;;;34.54;38.39
5812;BME280;2932;52.400;9.558;2022-09-06T14:57:14;100935.56;;;34.57;38.86